createdAt,value
2023-02-11T00:01:31.889Z,102475.22
2023-02-11T00:04:34.870Z,102478.03
2023-02-11T00:07:37.844Z,102481.81
2023-02-11T00:10:40.246Z,102483.69
2023-02-11T00:13:44.587Z,102487.44
2023-02-11T00:16:47.103Z,102482.91
2023-02-11T00:19:53.321Z,102482.63
2023-02-11T00:22:55.995Z,102487.53
2023-02-11T00:25:58.842Z,102487.44
2023-02-11T00:29:02.109Z,102489.84
2023-02-11T00:32:09.231Z,102490.66
2023-02-11T00:35:11.799Z,102491.81
2023-02-11T00:38:15.513Z,102496.03
2023-02-11T00:41:19.296Z,102495.50
2023-02-11T00:44:22.524Z,102497.13
2023-02-11T00:47:25.030Z,102481.59
2023-02-11T00:50:28.563Z,102481.53
2023-02-11T00:53:32.320Z,102467.22
2023-02-11T00:56:35.428Z,102460.38
2023-02-11T00:59:38.210Z,102458.75
2023-02-11T01:02:41.731Z,102447.56
2023-02-11T01:05:46.022Z,102447.28
2023-02-11T01:08:49.116Z,102437.47
2023-02-11T01:11:51.562Z,102437.81
2023-02-11T01:14:54.400Z,102432.53
2023-02-11T01:17:56.938Z,102429.41
2023-02-11T01:21:00.450Z,102428.72
2023-02-11T01:24:03.182Z,102424.16
2023-02-11T01:27:05.954Z,102429.25
2023-02-11T01:30:10.426Z,102424.59
2023-02-11T01:33:13.256Z,102413.78
2023-02-11T01:36:16.021Z,102417.63
2023-02-11T01:39:19.088Z,102424.19
2023-02-11T01:42:23.716Z,102420.94
2023-02-11T01:45:46.223Z,102418.47
2023-02-11T01:48:53.368Z,102427.00
2023-02-11T01:52:02.266Z,102419.31
2023-02-11T01:55:27.864Z,102408.63
2023-02-11T01:58:36.161Z,102408.34
2023-02-11T02:01:41.616Z,102408.63
2023-02-11T02:04:59.147Z,102408.78
2023-02-11T02:08:23.112Z,102413.66
2023-02-11T02:11:26.480Z,102412.41
2023-02-11T02:14:29.058Z,102409.28
2023-02-11T02:17:43.588Z,102408.25
2023-02-11T02:20:52.011Z,102400.72
2023-02-11T02:24:14.304Z,102400.72
2023-02-11T02:27:48.723Z,102392.81
2023-02-11T02:30:57.305Z,102383.59
2023-02-11T02:34:02.084Z,102392.81
2023-02-11T02:37:13.411Z,102393.63
2023-02-11T02:40:23.459Z,102387.50
2023-02-11T02:43:28.133Z,102385.13
2023-02-11T02:46:32.986Z,102391.88
2023-02-11T02:49:36.315Z,102381.91
2023-02-11T02:52:53.677Z,102392.00
2023-02-11T02:56:07.787Z,102388.19
2023-02-11T02:59:29.700Z,102393.41
2023-02-11T03:03:04.626Z,102395.47
2023-02-11T03:06:44.228Z,102397.41
2023-02-11T03:10:03.226Z,102394.00
2023-02-11T03:13:07.356Z,102391.13
2023-02-11T03:16:22.520Z,102380.91
2023-02-11T03:19:31.225Z,102376.00
2023-02-11T03:22:41.346Z,102358.75
2023-02-11T03:26:23.321Z,102357.91
2023-02-11T03:29:51.893Z,102353.81
2023-02-11T03:33:06.926Z,102349.53
2023-02-11T03:36:15.782Z,102349.31
2023-02-11T03:39:24.459Z,102338.16
2023-02-11T03:42:32.858Z,102327.31
2023-02-11T03:45:37.995Z,102334.13
2023-02-11T03:48:54.449Z,102336.16
2023-02-11T03:51:58.107Z,102331.38
2023-02-11T03:55:04.215Z,102316.59
2023-02-11T03:58:07.462Z,102307.63
2023-02-11T04:01:10.980Z,102298.00
2023-02-11T04:04:13.715Z,102288.22
2023-02-11T04:07:16.406Z,102288.91
2023-02-11T04:10:19.279Z,102290.03
2023-02-11T04:13:22.661Z,102277.78
2023-02-11T04:16:25.363Z,102274.06
2023-02-11T04:19:28.298Z,102268.38
2023-02-11T04:22:31.017Z,102258.06
2023-02-11T04:25:33.925Z,102259.59
2023-02-11T04:28:36.621Z,102260.75
2023-02-11T04:31:39.464Z,102267.50
2023-02-11T04:34:42.153Z,102271.19
2023-02-11T04:37:44.870Z,102283.91
2023-02-11T04:40:47.558Z,102284.66
2023-02-11T04:43:50.363Z,102286.84
2023-02-11T04:46:53.116Z,102296.25
2023-02-11T04:49:56.271Z,102292.91
2023-02-11T04:52:58.763Z,102294.75
2023-02-11T04:56:02.025Z,102301.09
2023-02-11T04:59:05.350Z,102303.41
2023-02-11T05:02:08.650Z,102311.16
2023-02-11T05:05:11.354Z,102308.84
2023-02-11T05:08:13.892Z,102302.16
2023-02-11T05:11:19.349Z,102298.25
2023-02-11T05:14:21.922Z,102294.25
2023-02-11T05:17:24.604Z,102287.59
2023-02-11T05:20:27.658Z,102298.47
2023-02-11T05:23:30.174Z,102306.13
2023-02-11T05:26:33.255Z,102299.31
2023-02-11T05:29:35.993Z,102303.00
2023-02-11T05:32:39.151Z,102299.88
2023-02-11T05:35:45.039Z,102298.25
2023-02-11T05:38:48.134Z,102281.88
2023-02-11T05:41:50.865Z,102281.59
2023-02-11T05:44:53.573Z,102268.38
2023-02-11T05:47:57.111Z,102265.69
2023-02-11T05:51:00.047Z,102261.47
2023-02-11T05:54:02.494Z,102266.63
2023-02-11T05:57:05.364Z,102261.25
2023-02-11T06:00:09.362Z,102267.50
2023-02-11T06:03:18.371Z,102270.47
2023-02-11T06:06:21.298Z,102279.56
2023-02-11T06:09:24.041Z,102278.50
2023-02-11T06:12:27.222Z,102283.88
2023-02-11T06:15:29.922Z,102273.63
2023-02-11T06:18:33.672Z,102266.56
2023-02-11T06:21:43.797Z,102261.56
2023-02-11T06:25:00.708Z,102261.66
2023-02-11T06:28:04.994Z,102254.16
2023-02-11T06:31:08.286Z,102246.50
2023-02-11T06:34:11.342Z,102246.09
2023-02-11T06:37:14.146Z,102244.03
2023-02-11T06:40:16.889Z,102233.09
2023-02-11T06:43:20.086Z,102210.75
2023-02-11T06:46:23.253Z,102208.31
2023-02-11T06:49:25.998Z,102207.84
2023-02-11T06:52:29.038Z,102203.63
2023-02-11T06:55:31.527Z,102214.81
2023-02-11T06:58:34.550Z,102221.00
2023-02-11T07:01:37.303Z,102217.28
2023-02-11T07:04:40.195Z,102225.63
2023-02-11T07:07:42.791Z,102219.31
2023-02-11T07:10:45.446Z,102209.44
2023-02-11T07:13:48.322Z,102202.63
2023-02-11T07:16:50.914Z,102210.06
2023-02-11T07:19:53.756Z,102219.97
2023-02-11T07:22:56.490Z,102236.06
2023-02-11T07:26:06.934Z,102225.69
2023-02-11T07:29:09.874Z,102222.09
2023-02-11T07:32:13.200Z,102215.09
2023-02-11T07:35:16.135Z,102211.06
2023-02-11T07:38:18.954Z,102222.59
2023-02-11T07:41:24.098Z,102208.28
2023-02-11T07:44:26.816Z,102216.44
2023-02-11T07:47:29.446Z,102205.03
2023-02-11T07:50:32.053Z,102210.91
2023-02-11T07:53:34.814Z,102215.59
2023-02-11T07:56:37.242Z,102211.38
2023-02-11T07:59:40.197Z,102216.38
2023-02-11T08:02:42.864Z,102232.34
2023-02-11T08:05:45.938Z,102229.38
2023-02-11T08:08:49.207Z,102226.59
2023-02-11T08:11:51.972Z,102219.72
2023-02-11T08:14:55.270Z,102219.34
2023-02-11T08:17:57.866Z,102222.13
2023-02-11T08:21:05.885Z,102227.34
2023-02-11T08:24:09.107Z,102230.13
2023-02-11T08:27:11.565Z,102228.00
2023-02-11T08:30:14.563Z,102225.41
2023-02-11T08:33:16.954Z,102211.09
2023-02-11T08:36:22.500Z,102204.09
2023-02-11T08:39:25.255Z,102197.00
2023-02-11T08:42:27.951Z,102197.84
2023-02-11T08:45:30.743Z,102188.19
2023-02-11T08:48:33.722Z,102185.78
2023-02-11T08:51:36.320Z,102182.34
2023-02-11T08:54:39.331Z,102188.50
2023-02-11T08:57:41.739Z,102178.31
2023-02-11T09:00:45.546Z,102185.53
2023-02-11T09:03:48.479Z,102185.69
2023-02-11T09:06:51.466Z,102168.81
2023-02-11T09:09:53.997Z,102169.19
2023-02-11T09:12:57.043Z,102181.47
2023-02-11T09:16:01.745Z,102185.22
2023-02-11T09:19:05.285Z,102174.38
2023-02-11T09:22:08.212Z,102164.41
2023-02-11T09:25:11.634Z,102156.94
2023-02-11T09:28:14.088Z,102163.41
2023-02-11T09:31:19.498Z,102162.59
2023-02-11T09:34:22.017Z,102166.91
2023-02-11T09:37:24.736Z,102162.78
2023-02-11T09:40:27.678Z,102155.38
2023-02-11T09:44:03.285Z,102163.81
2023-02-11T09:47:34.836Z,102175.75
2023-02-11T09:50:42.910Z,102178.66
2023-02-11T09:53:45.829Z,102169.09
2023-02-11T09:56:48.517Z,102174.16
2023-02-11T09:59:51.084Z,102163.78
2023-02-11T10:03:18.387Z,102150.09
2023-02-11T10:06:32.894Z,102151.16
2023-02-11T10:09:45.559Z,102131.59
2023-02-11T10:13:18.634Z,102115.06
2023-02-11T10:16:43.524Z,102112.22
2023-02-11T10:20:14.622Z,102110.44
2023-02-11T10:23:22.635Z,102102.88
2023-02-11T10:26:30.942Z,102101.75
2023-02-11T10:29:49.914Z,102085.88
2023-02-11T10:32:59.745Z,102082.66
2023-02-11T10:36:04.349Z,102076.28
2023-02-11T10:39:17.759Z,102075.44
2023-02-11T10:42:20.491Z,102071.06
2023-02-11T10:45:33.318Z,102064.06
2023-02-11T10:48:37.562Z,102053.94
2023-02-11T10:51:40.233Z,102051.59
2023-02-11T10:54:55.354Z,102059.72
2023-02-11T10:58:02.834Z,102054.88
2023-02-11T11:01:19.026Z,102056.53
2023-02-11T11:04:44.052Z,102039.72
2023-02-11T11:08:02.495Z,102046.00
2023-02-11T11:11:09.032Z,102041.97
2023-02-11T11:14:20.765Z,102042.19
2023-02-11T11:17:23.551Z,102026.28
2023-02-11T11:20:29.379Z,102027.06
2023-02-11T11:23:32.484Z,102010.28
2023-02-11T11:26:49.089Z,102009.38
2023-02-11T11:29:55.386Z,102008.41
2023-02-11T11:32:59.475Z,102008.63
2023-02-11T11:36:09.556Z,101994.94
2023-02-11T11:39:26.738Z,101993.50
2023-02-11T11:42:34.825Z,101991.97
2023-02-11T11:45:37.746Z,101994.44
2023-02-11T11:48:47.589Z,101973.03
2023-02-11T11:52:19.444Z,101961.16
2023-02-11T11:55:27.185Z,101963.97
2023-02-11T11:58:32.366Z,101956.25
2023-02-11T12:01:54.083Z,101968.28
2023-02-11T12:05:14.928Z,101953.34
2023-02-11T12:08:31.463Z,101942.38
2023-02-11T12:12:03.020Z,101939.34
2023-02-11T12:15:31.401Z,101918.91
2023-02-11T12:19:12.274Z,101915.88
2023-02-11T12:22:41.950Z,101915.44
2023-02-11T12:26:16.062Z,101892.03
2023-02-11T12:29:36.783Z,101871.56
2023-02-11T12:32:45.053Z,101856.63
2023-02-11T12:36:05.981Z,101849.19
2023-02-11T12:39:12.082Z,101836.47
2023-02-11T12:42:57.590Z,101838.69
2023-02-11T12:46:33.601Z,101848.13
2023-02-11T12:50:18.182Z,101860.09
2023-02-11T12:53:29.205Z,101864.44
2023-02-11T12:56:39.710Z,101873.81
2023-02-11T12:59:57.207Z,101877.09
2023-02-11T13:03:07.215Z,101854.41
2023-02-11T13:06:16.517Z,101854.00
2023-02-11T13:09:32.367Z,101841.09
2023-02-11T13:12:55.634Z,101823.28
2023-02-11T13:16:19.962Z,101802.38
2023-02-11T13:19:41.331Z,101784.13
2023-02-11T13:22:51.906Z,101758.50
2023-02-11T13:26:24.086Z,101748.78
2023-02-11T13:29:36.419Z,101762.97
2023-02-11T13:33:16.550Z,101762.44
2023-02-11T13:36:22.023Z,101744.00
2023-02-11T13:39:25.090Z,101767.06
2023-02-11T13:42:29.838Z,101746.94
2023-02-11T13:45:50.039Z,101771.97
2023-02-11T13:48:54.101Z,101755.47
2023-02-11T13:51:58.101Z,101743.41
2023-02-11T13:55:19.930Z,101750.69
2023-02-11T13:58:29.598Z,101750.88
2023-02-11T14:02:07.818Z,101730.78
2023-02-11T14:05:39.167Z,101729.97
2023-02-11T14:09:01.631Z,101718.56
2023-02-11T14:12:31.259Z,101718.41
2023-02-11T14:15:41.194Z,101726.91
2023-02-11T14:18:55.937Z,101732.53
2023-02-11T14:22:13.532Z,101739.09
2023-02-11T14:25:27.220Z,101737.63
2023-02-11T14:28:34.487Z,101745.41
2023-02-11T14:32:05.724Z,101759.59
2023-02-11T14:35:47.469Z,101753.59
2023-02-11T14:39:29.919Z,101755.44
2023-02-11T14:42:34.609Z,101763.22
2023-02-11T14:45:38.698Z,101755.16
2023-02-11T14:48:46.949Z,101734.94
2023-02-11T14:51:49.903Z,101725.66
2023-02-11T14:55:17.791Z,101723.31
2023-02-11T14:58:27.204Z,101704.31
2023-02-11T15:01:36.041Z,101701.41
2023-02-11T15:04:40.794Z,101690.00
2023-02-11T15:07:49.654Z,101676.63
2023-02-11T15:10:55.259Z,101671.84
2023-02-11T15:14:01.894Z,101671.66
